sensor_id;sensor_type;location;lat;lon;timestamp;P1;durP1;ratioP1;P2;durP2;ratioP2
4630;SDS011;2328;48.170;11.602;2023-05-07T00:01:28;5.40;;;2.93;;
4630;SDS011;2328;48.170;11.602;2023-05-07T00:03:57;6.20;;;2.57;;
4630;SDS011;2328;48.170;11.602;2023-05-07T00:06:27;3.33;;;3.00;;
4630;SDS011;2328;48.170;11.602;2023-05-07T00:08:58;5.60;;;3.77;;
4630;SDS011;2328;48.170;11.602;2023-05-07T00:11:27;3.40;;;3.10;;
4630;SDS011;2328;48.170;11.602;2023-05-07T00:13:56;5.40;;;3.60;;
4630;SDS011;2328;48.170;11.602;2023-05-07T00:16:25;5.90;;;3.80;;
4630;SDS011;2328;48.170;11.602;2023-05-07T00:18:54;5.40;;;3.70;;
4630;SDS011;2328;48.170;11.602;2023-05-07T00:21:23;7.90;;;4.60;;
4630;SDS011;2328;48.170;11.602;2023-05-07T00:23:53;4.97;;;3.17;;
4630;SDS011;2328;48.170;11.602;2023-05-07T00:26:23;5.87;;;3.33;;
4630;SDS011;2328;48.170;11.602;2023-05-07T00:28:51;4.87;;;3.70;;
4630;SDS011;2328;48.170;11.602;2023-05-07T00:31:20;9.33;;;4.00;;
4630;SDS011;2328;48.170;11.602;2023-05-07T00:33:51;7.33;;;4.07;;
4630;SDS011;2328;48.170;11.602;2023-05-07T00:36:20;4.87;;;3.67;;
4630;SDS011;2328;48.170;11.602;2023-05-07T00:38:48;7.63;;;4.07;;
4630;SDS011;2328;48.170;11.602;2023-05-07T00:41:17;4.83;;;3.53;;
4630;SDS011;2328;48.170;11.602;2023-05-07T00:43:47;6.50;;;4.27;;
4630;SDS011;2328;48.170;11.602;2023-05-07T00:46:18;6.20;;;3.50;;
4630;SDS011;2328;48.170;11.602;2023-05-07T00:48:47;4.67;;;3.63;;
4630;SDS011;2328;48.170;11.602;2023-05-07T00:51:17;4.37;;;3.33;;
4630;SDS011;2328;48.170;11.602;2023-05-07T00:53:46;5.03;;;3.87;;
4630;SDS011;2328;48.170;11.602;2023-05-07T00:56:14;6.40;;;3.93;;
4630;SDS011;2328;48.170;11.602;2023-05-07T00:58:43;5.10;;;3.60;;
4630;SDS011;2328;48.170;11.602;2023-05-07T01:01:14;4.13;;;3.47;;
4630;SDS011;2328;48.170;11.602;2023-05-07T01:03:43;5.47;;;3.90;;
4630;SDS011;2328;48.170;11.602;2023-05-07T01:06:13;5.53;;;3.83;;
4630;SDS011;2328;48.170;11.602;2023-05-07T01:08:43;4.80;;;3.70;;
4630;SDS011;2328;48.170;11.602;2023-05-07T01:11:13;4.50;;;3.47;;
4630;SDS011;2328;48.170;11.602;2023-05-07T01:13:42;4.43;;;3.50;;
4630;SDS011;2328;48.170;11.602;2023-05-07T01:16:12;6.73;;;4.63;;
4630;SDS011;2328;48.170;11.602;2023-05-07T01:18:42;6.10;;;4.30;;
4630;SDS011;2328;48.170;11.602;2023-05-07T01:21:13;6.50;;;3.67;;
4630;SDS011;2328;48.170;11.602;2023-05-07T01:23:45;5.67;;;3.90;;
4630;SDS011;2328;48.170;11.602;2023-05-07T01:26:14;6.33;;;4.40;;
4630;SDS011;2328;48.170;11.602;2023-05-07T01:28:42;7.10;;;4.27;;
4630;SDS011;2328;48.170;11.602;2023-05-07T01:31:11;5.97;;;3.97;;
4630;SDS011;2328;48.170;11.602;2023-05-07T01:33:40;4.63;;;4.20;;
4630;SDS011;2328;48.170;11.602;2023-05-07T01:36:09;4.87;;;4.37;;
4630;SDS011;2328;48.170;11.602;2023-05-07T01:38:39;4.63;;;4.00;;
4630;SDS011;2328;48.170;11.602;2023-05-07T01:41:10;6.50;;;5.67;;
4630;SDS011;2328;48.170;11.602;2023-05-07T01:43:40;6.20;;;3.77;;
4630;SDS011;2328;48.170;11.602;2023-05-07T01:46:09;4.13;;;3.40;;
4630;SDS011;2328;48.170;11.602;2023-05-07T01:51:12;4.73;;;3.93;;
4630;SDS011;2328;48.170;11.602;2023-05-07T01:53:41;5.87;;;4.40;;
4630;SDS011;2328;48.170;11.602;2023-05-07T01:56:13;6.50;;;4.53;;
4630;SDS011;2328;48.170;11.602;2023-05-07T01:58:42;4.10;;;3.67;;
4630;SDS011;2328;48.170;11.602;2023-05-07T02:01:10;6.20;;;3.70;;
4630;SDS011;2328;48.170;11.602;2023-05-07T02:03:39;6.80;;;4.93;;
4630;SDS011;2328;48.170;11.602;2023-05-07T02:06:08;6.57;;;4.30;;
4630;SDS011;2328;48.170;11.602;2023-05-07T02:08:37;8.40;;;4.10;;
4630;SDS011;2328;48.170;11.602;2023-05-07T02:11:05;8.00;;;4.40;;
4630;SDS011;2328;48.170;11.602;2023-05-07T02:13:36;5.43;;;4.90;;
4630;SDS011;2328;48.170;11.602;2023-05-07T02:16:05;6.33;;;4.83;;
4630;SDS011;2328;48.170;11.602;2023-05-07T02:18:34;6.33;;;4.10;;
4630;SDS011;2328;48.170;11.602;2023-05-07T02:21:04;8.40;;;3.70;;
4630;SDS011;2328;48.170;11.602;2023-05-07T02:23:33;5.50;;;4.20;;
4630;SDS011;2328;48.170;11.602;2023-05-07T02:26:01;9.70;;;4.57;;
4630;SDS011;2328;48.170;11.602;2023-05-07T02:28:30;7.10;;;5.13;;
4630;SDS011;2328;48.170;11.602;2023-05-07T02:31:03;7.00;;;4.87;;
4630;SDS011;2328;48.170;11.602;2023-05-07T02:33:32;5.70;;;4.60;;
4630;SDS011;2328;48.170;11.602;2023-05-07T02:36:06;6.07;;;4.47;;
4630;SDS011;2328;48.170;11.602;2023-05-07T02:38:35;6.53;;;4.63;;
4630;SDS011;2328;48.170;11.602;2023-05-07T02:41:04;9.47;;;5.70;;
4630;SDS011;2328;48.170;11.602;2023-05-07T02:43:32;6.93;;;4.67;;
4630;SDS011;2328;48.170;11.602;2023-05-07T02:46:03;5.50;;;4.53;;
4630;SDS011;2328;48.170;11.602;2023-05-07T02:48:32;6.30;;;4.30;;
4630;SDS011;2328;48.170;11.602;2023-05-07T02:51:02;6.97;;;4.20;;
4630;SDS011;2328;48.170;11.602;2023-05-07T02:53:31;6.13;;;4.93;;
4630;SDS011;2328;48.170;11.602;2023-05-07T02:56:00;6.10;;;5.17;;
4630;SDS011;2328;48.170;11.602;2023-05-07T02:58:29;5.60;;;4.40;;
4630;SDS011;2328;48.170;11.602;2023-05-07T03:00:58;9.10;;;4.80;;
4630;SDS011;2328;48.170;11.602;2023-05-07T03:03:28;4.27;;;3.83;;
4630;SDS011;2328;48.170;11.602;2023-05-07T03:05:56;5.17;;;4.67;;
4630;SDS011;2328;48.170;11.602;2023-05-07T03:08:25;6.07;;;5.43;;
4630;SDS011;2328;48.170;11.602;2023-05-07T03:10:54;7.13;;;4.80;;
4630;SDS011;2328;48.170;11.602;2023-05-07T03:13:22;4.93;;;4.20;;
4630;SDS011;2328;48.170;11.602;2023-05-07T03:15:52;7.20;;;4.50;;
4630;SDS011;2328;48.170;11.602;2023-05-07T03:18:21;5.47;;;3.87;;
4630;SDS011;2328;48.170;11.602;2023-05-07T03:20:51;6.33;;;5.17;;
4630;SDS011;2328;48.170;11.602;2023-05-07T03:23:20;4.90;;;4.23;;
4630;SDS011;2328;48.170;11.602;2023-05-07T03:25:50;7.30;;;5.53;;
4630;SDS011;2328;48.170;11.602;2023-05-07T03:28:19;7.30;;;4.23;;
4630;SDS011;2328;48.170;11.602;2023-05-07T03:30:48;4.37;;;3.97;;
4630;SDS011;2328;48.170;11.602;2023-05-07T03:33:17;6.40;;;4.43;;
4630;SDS011;2328;48.170;11.602;2023-05-07T03:35:45;4.70;;;4.17;;
4630;SDS011;2328;48.170;11.602;2023-05-07T03:38:16;7.20;;;4.60;;
4630;SDS011;2328;48.170;11.602;2023-05-07T03:40:45;4.60;;;3.90;;
4630;SDS011;2328;48.170;11.602;2023-05-07T03:43:14;5.33;;;4.83;;
4630;SDS011;2328;48.170;11.602;2023-05-07T03:45:42;5.57;;;4.40;;
4630;SDS011;2328;48.170;11.602;2023-05-07T03:48:11;6.43;;;4.73;;
4630;SDS011;2328;48.170;11.602;2023-05-07T03:50:40;6.00;;;4.20;;
4630;SDS011;2328;48.170;11.602;2023-05-07T03:53:10;4.77;;;3.60;;
4630;SDS011;2328;48.170;11.602;2023-05-07T03:55:40;6.27;;;4.47;;
4630;SDS011;2328;48.170;11.602;2023-05-07T03:58:09;7.70;;;4.70;;
4630;SDS011;2328;48.170;11.602;2023-05-07T04:00:37;4.20;;;3.80;;
4630;SDS011;2328;48.170;11.602;2023-05-07T04:03:07;5.83;;;4.90;;
4630;SDS011;2328;48.170;11.602;2023-05-07T04:05:36;8.47;;;4.30;;
4630;SDS011;2328;48.170;11.602;2023-05-07T04:08:05;6.53;;;4.33;;
4630;SDS011;2328;48.170;11.602;2023-05-07T04:10:34;6.20;;;4.40;;
4630;SDS011;2328;48.170;11.602;2023-05-07T04:13:05;7.47;;;4.20;;
4630;SDS011;2328;48.170;11.602;2023-05-07T04:15:35;7.47;;;5.07;;
4630;SDS011;2328;48.170;11.602;2023-05-07T04:18:04;7.37;;;5.30;;
4630;SDS011;2328;48.170;11.602;2023-05-07T04:20:33;6.70;;;4.17;;
4630;SDS011;2328;48.170;11.602;2023-05-07T04:23:03;4.70;;;3.70;;
4630;SDS011;2328;48.170;11.602;2023-05-07T04:25:32;6.07;;;4.30;;
4630;SDS011;2328;48.170;11.602;2023-05-07T04:28:01;4.97;;;4.47;;
4630;SDS011;2328;48.170;11.602;2023-05-07T04:30:31;6.50;;;4.50;;
4630;SDS011;2328;48.170;11.602;2023-05-07T04:33:00;5.00;;;3.90;;
4630;SDS011;2328;48.170;11.602;2023-05-07T04:35:29;4.20;;;3.40;;
4630;SDS011;2328;48.170;11.602;2023-05-07T04:37:58;6.13;;;4.10;;
4630;SDS011;2328;48.170;11.602;2023-05-07T04:40:27;5.07;;;3.40;;
4630;SDS011;2328;48.170;11.602;2023-05-07T04:42:56;9.10;;;4.47;;
4630;SDS011;2328;48.170;11.602;2023-05-07T04:45:25;6.37;;;4.83;;
4630;SDS011;2328;48.170;11.602;2023-05-07T04:47:55;8.63;;;5.30;;
4630;SDS011;2328;48.170;11.602;2023-05-07T04:50:24;7.13;;;5.00;;
4630;SDS011;2328;48.170;11.602;2023-05-07T04:52:53;7.70;;;5.37;;
4630;SDS011;2328;48.170;11.602;2023-05-07T04:55:22;7.67;;;4.43;;
4630;SDS011;2328;48.170;11.602;2023-05-07T04:57:51;5.97;;;4.20;;
4630;SDS011;2328;48.170;11.602;2023-05-07T05:00:21;6.03;;;4.57;;
4630;SDS011;2328;48.170;11.602;2023-05-07T05:02:49;4.00;;;3.60;;
4630;SDS011;2328;48.170;11.602;2023-05-07T05:05:20;4.10;;;3.60;;
4630;SDS011;2328;48.170;11.602;2023-05-07T05:07:49;5.93;;;3.90;;
4630;SDS011;2328;48.170;11.602;2023-05-07T05:10:19;7.63;;;4.30;;
4630;SDS011;2328;48.170;11.602;2023-05-07T05:12:50;10.90;;;4.63;;
4630;SDS011;2328;48.170;11.602;2023-05-07T05:15:18;6.50;;;4.77;;
4630;SDS011;2328;48.170;11.602;2023-05-07T05:17:48;8.97;;;4.90;;
4630;SDS011;2328;48.170;11.602;2023-05-07T05:20:17;7.03;;;4.77;;
4630;SDS011;2328;48.170;11.602;2023-05-07T05:22:49;5.80;;;4.33;;
4630;SDS011;2328;48.170;11.602;2023-05-07T05:25:18;6.63;;;4.70;;
4630;SDS011;2328;48.170;11.602;2023-05-07T05:27:47;8.03;;;4.93;;
4630;SDS011;2328;48.170;11.602;2023-05-07T05:30:16;8.20;;;5.10;;
4630;SDS011;2328;48.170;11.602;2023-05-07T05:32:46;7.10;;;4.57;;
4630;SDS011;2328;48.170;11.602;2023-05-07T05:35:15;4.60;;;4.10;;
4630;SDS011;2328;48.170;11.602;2023-05-07T05:37:44;4.80;;;4.10;;
4630;SDS011;2328;48.170;11.602;2023-05-07T05:40:15;4.17;;;3.70;;
4630;SDS011;2328;48.170;11.602;2023-05-07T05:42:44;3.40;;;3.20;;
4630;SDS011;2328;48.170;11.602;2023-05-07T05:45:13;6.57;;;3.80;;
4630;SDS011;2328;48.170;11.602;2023-05-07T05:47:43;5.30;;;3.73;;
4630;SDS011;2328;48.170;11.602;2023-05-07T05:50:15;4.00;;;3.10;;
4630;SDS011;2328;48.170;11.602;2023-05-07T05:52:43;5.73;;;3.80;;
4630;SDS011;2328;48.170;11.602;2023-05-07T05:55:12;3.40;;;3.10;;
4630;SDS011;2328;48.170;11.602;2023-05-07T05:57:46;4.23;;;3.83;;
4630;SDS011;2328;48.170;11.602;2023-05-07T06:00:14;3.37;;;3.07;;
4630;SDS011;2328;48.170;11.602;2023-05-07T06:02:43;3.63;;;3.23;;
4630;SDS011;2328;48.170;11.602;2023-05-07T06:05:12;2.93;;;2.73;;
4630;SDS011;2328;48.170;11.602;2023-05-07T06:07:41;3.60;;;3.10;;
4630;SDS011;2328;48.170;11.602;2023-05-07T06:10:10;3.67;;;2.67;;
4630;SDS011;2328;48.170;11.602;2023-05-07T06:12:39;3.83;;;3.00;;
4630;SDS011;2328;48.170;11.602;2023-05-07T06:15:10;3.30;;;2.63;;
4630;SDS011;2328;48.170;11.602;2023-05-07T06:17:39;2.93;;;2.70;;
4630;SDS011;2328;48.170;11.602;2023-05-07T06:20:08;4.03;;;3.10;;
4630;SDS011;2328;48.170;11.602;2023-05-07T06:22:37;3.33;;;3.03;;
4630;SDS011;2328;48.170;11.602;2023-05-07T06:25:07;2.93;;;2.73;;
4630;SDS011;2328;48.170;11.602;2023-05-07T06:27:37;3.50;;;3.20;;
4630;SDS011;2328;48.170;11.602;2023-05-07T06:30:06;2.97;;;2.77;;
4630;SDS011;2328;48.170;11.602;2023-05-07T06:32:37;5.03;;;2.47;;
4630;SDS011;2328;48.170;11.602;2023-05-07T06:35:07;2.37;;;2.27;;
4630;SDS011;2328;48.170;11.602;2023-05-07T06:37:36;2.37;;;2.27;;
4630;SDS011;2328;48.170;11.602;2023-05-07T06:40:08;16.43;;;2.17;;
4630;SDS011;2328;48.170;11.602;2023-05-07T06:42:40;4.47;;;2.50;;
4630;SDS011;2328;48.170;11.602;2023-05-07T06:45:09;2.60;;;2.40;;
4630;SDS011;2328;48.170;11.602;2023-05-07T06:47:40;2.90;;;2.27;;
4630;SDS011;2328;48.170;11.602;2023-05-07T06:50:09;2.40;;;1.73;;
4630;SDS011;2328;48.170;11.602;2023-05-07T06:52:38;2.13;;;1.90;;
4630;SDS011;2328;48.170;11.602;2023-05-07T06:55:07;4.30;;;2.00;;
4630;SDS011;2328;48.170;11.602;2023-05-07T06:57:36;2.03;;;1.93;;
4630;SDS011;2328;48.170;11.602;2023-05-07T07:00:05;2.93;;;1.67;;
4630;SDS011;2328;48.170;11.602;2023-05-07T07:02:36;1.93;;;1.83;;
4630;SDS011;2328;48.170;11.602;2023-05-07T07:05:07;2.30;;;2.10;;
4630;SDS011;2328;48.170;11.602;2023-05-07T07:07:36;3.33;;;2.20;;
4630;SDS011;2328;48.170;11.602;2023-05-07T07:10:05;4.03;;;2.53;;
4630;SDS011;2328;48.170;11.602;2023-05-07T07:12:38;2.40;;;2.20;;
4630;SDS011;2328;48.170;11.602;2023-05-07T07:15:07;2.30;;;2.20;;
4630;SDS011;2328;48.170;11.602;2023-05-07T07:17:47;1.97;;;1.87;;
4630;SDS011;2328;48.170;11.602;2023-05-07T07:20:19;2.50;;;2.20;;
4630;SDS011;2328;48.170;11.602;2023-05-07T07:22:48;2.60;;;2.40;;
4630;SDS011;2328;48.170;11.602;2023-05-07T07:25:23;1.97;;;1.83;;
4630;SDS011;2328;48.170;11.602;2023-05-07T07:27:56;3.70;;;2.13;;
4630;SDS011;2328;48.170;11.602;2023-05-07T07:30:27;4.60;;;2.07;;
4630;SDS011;2328;48.170;11.602;2023-05-07T07:32:56;2.30;;;2.10;;
4630;SDS011;2328;48.170;11.602;2023-05-07T07:35:33;3.40;;;2.20;;
4630;SDS011;2328;48.170;11.602;2023-05-07T07:38:06;2.60;;;2.03;;
4630;SDS011;2328;48.170;11.602;2023-05-07T07:40:40;9.03;;;2.40;;
4630;SDS011;2328;48.170;11.602;2023-05-07T07:43:12;3.20;;;2.70;;
4630;SDS011;2328;48.170;11.602;2023-05-07T07:45:41;5.70;;;2.53;;
4630;SDS011;2328;48.170;11.602;2023-05-07T07:48:22;2.03;;;1.90;;
4630;SDS011;2328;48.170;11.602;2023-05-07T07:51:20;4.33;;;2.40;;
4630;SDS011;2328;48.170;11.602;2023-05-07T07:53:50;2.50;;;2.30;;
4630;SDS011;2328;48.170;11.602;2023-05-07T07:56:25;2.00;;;1.90;;
4630;SDS011;2328;48.170;11.602;2023-05-07T07:58:54;2.30;;;2.07;;
4630;SDS011;2328;48.170;11.602;2023-05-07T08:01:25;2.23;;;2.03;;
4630;SDS011;2328;48.170;11.602;2023-05-07T08:03:53;2.10;;;1.90;;
4630;SDS011;2328;48.170;11.602;2023-05-07T08:06:30;1.63;;;1.50;;
4630;SDS011;2328;48.170;11.602;2023-05-07T08:09:02;4.17;;;1.90;;
4630;SDS011;2328;48.170;11.602;2023-05-07T08:11:38;2.40;;;2.10;;
4630;SDS011;2328;48.170;11.602;2023-05-07T08:14:11;3.27;;;1.90;;
4630;SDS011;2328;48.170;11.602;2023-05-07T08:17:02;1.90;;;1.80;;
4630;SDS011;2328;48.170;11.602;2023-05-07T08:19:58;2.00;;;1.90;;
4630;SDS011;2328;48.170;11.602;2023-05-07T08:22:46;2.40;;;2.20;;
4630;SDS011;2328;48.170;11.602;2023-05-07T08:25:15;1.53;;;1.43;;
4630;SDS011;2328;48.170;11.602;2023-05-07T08:27:45;2.43;;;2.23;;
4630;SDS011;2328;48.170;11.602;2023-05-07T08:30:20;2.50;;;2.30;;
4630;SDS011;2328;48.170;11.602;2023-05-07T08:32:50;3.00;;;1.83;;
4630;SDS011;2328;48.170;11.602;2023-05-07T08:35:22;2.60;;;1.77;;
4630;SDS011;2328;48.170;11.602;2023-05-07T08:37:57;2.10;;;1.90;;
4630;SDS011;2328;48.170;11.602;2023-05-07T08:40:27;1.80;;;1.70;;
4630;SDS011;2328;48.170;11.602;2023-05-07T08:42:57;4.00;;;2.67;;
4630;SDS011;2328;48.170;11.602;2023-05-07T08:45:27;2.03;;;1.93;;
4630;SDS011;2328;48.170;11.602;2023-05-07T08:48:01;2.20;;;2.03;;
4630;SDS011;2328;48.170;11.602;2023-05-07T08:50:31;3.63;;;2.90;;
4630;SDS011;2328;48.170;11.602;2023-05-07T08:53:02;1.97;;;1.87;;
4630;SDS011;2328;48.170;11.602;2023-05-07T08:55:31;1.90;;;1.80;;
4630;SDS011;2328;48.170;11.602;2023-05-07T08:58:04;2.10;;;2.00;;
4630;SDS011;2328;48.170;11.602;2023-05-07T09:00:38;2.40;;;2.23;;
4630;SDS011;2328;48.170;11.602;2023-05-07T09:03:14;2.67;;;2.47;;
4630;SDS011;2328;48.170;11.602;2023-05-07T09:05:44;2.27;;;2.07;;
4630;SDS011;2328;48.170;11.602;2023-05-07T09:08:16;2.50;;;2.30;;
4630;SDS011;2328;48.170;11.602;2023-05-07T09:10:46;3.43;;;2.73;;
4630;SDS011;2328;48.170;11.602;2023-05-07T09:13:16;7.00;;;2.57;;
4630;SDS011;2328;48.170;11.602;2023-05-07T09:15:50;3.17;;;2.20;;
4630;SDS011;2328;48.170;11.602;2023-05-07T09:18:29;3.17;;;2.23;;
4630;SDS011;2328;48.170;11.602;2023-05-07T09:21:00;2.67;;;2.47;;
4630;SDS011;2328;48.170;11.602;2023-05-07T09:23:33;2.77;;;2.57;;
4630;SDS011;2328;48.170;11.602;2023-05-07T09:26:10;3.60;;;2.30;;
4630;SDS011;2328;48.170;11.602;2023-05-07T09:28:58;2.03;;;1.90;;
4630;SDS011;2328;48.170;11.602;2023-05-07T09:31:31;1.63;;;1.53;;
4630;SDS011;2328;48.170;11.602;2023-05-07T09:34:07;3.30;;;2.50;;
4630;SDS011;2328;48.170;11.602;2023-05-07T09:37:07;2.37;;;1.97;;
4630;SDS011;2328;48.170;11.602;2023-05-07T09:39:44;2.17;;;1.90;;
4630;SDS011;2328;48.170;11.602;2023-05-07T09:42:15;2.43;;;2.10;;
4630;SDS011;2328;48.170;11.602;2023-05-07T09:44:44;2.27;;;2.07;;
4630;SDS011;2328;48.170;11.602;2023-05-07T09:47:36;1.60;;;1.50;;
4630;SDS011;2328;48.170;11.602;2023-05-07T09:50:22;3.03;;;2.73;;
4630;SDS011;2328;48.170;11.602;2023-05-07T09:53:05;3.83;;;2.57;;
4630;SDS011;2328;48.170;11.602;2023-05-07T09:55:55;2.20;;;2.00;;
4630;SDS011;2328;48.170;11.602;2023-05-07T09:58:32;2.60;;;2.13;;
4630;SDS011;2328;48.170;11.602;2023-05-07T10:01:06;3.07;;;2.40;;
4630;SDS011;2328;48.170;11.602;2023-05-07T10:04:08;2.40;;;2.20;;
4630;SDS011;2328;48.170;11.602;2023-05-07T10:06:52;3.20;;;2.30;;
4630;SDS011;2328;48.170;11.602;2023-05-07T10:09:34;3.27;;;2.10;;
4630;SDS011;2328;48.170;11.602;2023-05-07T10:15:12;2.03;;;1.43;;
4630;SDS011;2328;48.170;11.602;2023-05-07T10:18:10;4.13;;;1.80;;
4630;SDS011;2328;48.170;11.602;2023-05-07T10:20:46;1.70;;;1.60;;
4630;SDS011;2328;48.170;11.602;2023-05-07T10:23:51;1.67;;;1.50;;
4630;SDS011;2328;48.170;11.602;2023-05-07T10:26:44;1.97;;;1.43;;
4630;SDS011;2328;48.170;11.602;2023-05-07T10:29:25;1.50;;;1.40;;
4630;SDS011;2328;48.170;11.602;2023-05-07T10:34:58;3.40;;;2.07;;
4630;SDS011;2328;48.170;11.602;2023-05-07T10:37:47;2.50;;;1.70;;
4630;SDS011;2328;48.170;11.602;2023-05-07T10:40:44;3.70;;;1.83;;
4630;SDS011;2328;48.170;11.602;2023-05-07T10:43:21;6.13;;;2.00;;
4630;SDS011;2328;48.170;11.602;2023-05-07T10:46:13;4.30;;;2.37;;
4630;SDS011;2328;48.170;11.602;2023-05-07T10:49:08;2.50;;;2.07;;
4630;SDS011;2328;48.170;11.602;2023-05-07T10:52:14;2.67;;;2.00;;
4630;SDS011;2328;48.170;11.602;2023-05-07T10:55:18;2.20;;;1.97;;
4630;SDS011;2328;48.170;11.602;2023-05-07T10:57:57;3.63;;;2.60;;
4630;SDS011;2328;48.170;11.602;2023-05-07T11:01:03;3.70;;;2.43;;
4630;SDS011;2328;48.170;11.602;2023-05-07T11:03:37;1.70;;;1.60;;
4630;SDS011;2328;48.170;11.602;2023-05-07T11:09:59;2.03;;;1.70;;
4630;SDS011;2328;48.170;11.602;2023-05-07T11:15:53;2.40;;;2.27;;
4630;SDS011;2328;48.170;11.602;2023-05-07T11:18:26;2.27;;;2.13;;
4630;SDS011;2328;48.170;11.602;2023-05-07T11:23:59;1.87;;;1.70;;
4630;SDS011;2328;48.170;11.602;2023-05-07T11:26:41;1.80;;;1.70;;
4630;SDS011;2328;48.170;11.602;2023-05-07T11:29:13;2.20;;;2.00;;
4630;SDS011;2328;48.170;11.602;2023-05-07T11:31:55;1.63;;;1.50;;
4630;SDS011;2328;48.170;11.602;2023-05-07T11:34:26;1.90;;;1.70;;
4630;SDS011;2328;48.170;11.602;2023-05-07T11:36:57;2.10;;;1.97;;
4630;SDS011;2328;48.170;11.602;2023-05-07T11:39:27;2.50;;;2.30;;
4630;SDS011;2328;48.170;11.602;2023-05-07T11:42:02;1.83;;;1.73;;
4630;SDS011;2328;48.170;11.602;2023-05-07T11:44:42;2.77;;;1.87;;
4630;SDS011;2328;48.170;11.602;2023-05-07T11:47:16;2.43;;;1.80;;
4630;SDS011;2328;48.170;11.602;2023-05-07T11:49:48;2.50;;;2.30;;
4630;SDS011;2328;48.170;11.602;2023-05-07T11:52:17;2.83;;;2.07;;
4630;SDS011;2328;48.170;11.602;2023-05-07T11:54:48;5.43;;;2.00;;
4630;SDS011;2328;48.170;11.602;2023-05-07T11:57:18;3.30;;;2.90;;
4630;SDS011;2328;48.170;11.602;2023-05-07T11:59:53;3.73;;;2.60;;
4630;SDS011;2328;48.170;11.602;2023-05-07T12:02:24;2.00;;;1.90;;
4630;SDS011;2328;48.170;11.602;2023-05-07T12:04:54;6.83;;;2.20;;
4630;SDS011;2328;48.170;11.602;2023-05-07T12:07:29;2.70;;;2.10;;
4630;SDS011;2328;48.170;11.602;2023-05-07T12:09:58;2.20;;;2.00;;
4630;SDS011;2328;48.170;11.602;2023-05-07T12:12:30;1.67;;;1.53;;
4630;SDS011;2328;48.170;11.602;2023-05-07T12:15:03;1.70;;;1.60;;
4630;SDS011;2328;48.170;11.602;2023-05-07T12:17:38;2.00;;;1.90;;
4630;SDS011;2328;48.170;11.602;2023-05-07T12:20:08;2.50;;;1.80;;
4630;SDS011;2328;48.170;11.602;2023-05-07T12:22:40;5.90;;;1.80;;
4630;SDS011;2328;48.170;11.602;2023-05-07T12:25:09;1.67;;;1.33;;
4630;SDS011;2328;48.170;11.602;2023-05-07T12:27:42;3.00;;;1.97;;
4630;SDS011;2328;48.170;11.602;2023-05-07T12:30:12;1.77;;;1.33;;
4630;SDS011;2328;48.170;11.602;2023-05-07T12:32:43;1.73;;;1.50;;
4630;SDS011;2328;48.170;11.602;2023-05-07T12:35:13;1.50;;;1.40;;
4630;SDS011;2328;48.170;11.602;2023-05-07T12:37:41;1.50;;;1.40;;
4630;SDS011;2328;48.170;11.602;2023-05-07T12:40:14;1.57;;;1.30;;
4630;SDS011;2328;48.170;11.602;2023-05-07T12:42:52;2.03;;;1.50;;
4630;SDS011;2328;48.170;11.602;2023-05-07T12:45:31;1.40;;;1.00;;
4630;SDS011;2328;48.170;11.602;2023-05-07T12:48:00;1.37;;;1.27;;
4630;SDS011;2328;48.170;11.602;2023-05-07T12:50:34;1.17;;;1.10;;
4630;SDS011;2328;48.170;11.602;2023-05-07T12:53:04;1.20;;;1.10;;
4630;SDS011;2328;48.170;11.602;2023-05-07T12:55:41;1.83;;;1.73;;
4630;SDS011;2328;48.170;11.602;2023-05-07T13:01:00;1.67;;;1.10;;
4630;SDS011;2328;48.170;11.602;2023-05-07T13:03:30;1.50;;;1.20;;
4630;SDS011;2328;48.170;11.602;2023-05-07T13:06:11;1.73;;;1.63;;
4630;SDS011;2328;48.170;11.602;2023-05-07T13:08:45;1.97;;;1.33;;
4630;SDS011;2328;48.170;11.602;2023-05-07T13:11:14;1.80;;;1.40;;
4630;SDS011;2328;48.170;11.602;2023-05-07T13:13:42;0.97;;;0.97;;
4630;SDS011;2328;48.170;11.602;2023-05-07T13:16:13;1.43;;;1.20;;
4630;SDS011;2328;48.170;11.602;2023-05-07T13:18:42;1.07;;;0.97;;
4630;SDS011;2328;48.170;11.602;2023-05-07T13:21:14;1.47;;;1.03;;
4630;SDS011;2328;48.170;11.602;2023-05-07T13:23:43;0.90;;;0.90;;
4630;SDS011;2328;48.170;11.602;2023-05-07T13:26:12;2.40;;;1.70;;
4630;SDS011;2328;48.170;11.602;2023-05-07T13:28:51;1.67;;;1.40;;
4630;SDS011;2328;48.170;11.602;2023-05-07T13:31:21;1.47;;;1.37;;
4630;SDS011;2328;48.170;11.602;2023-05-07T13:33:50;1.80;;;1.07;;
4630;SDS011;2328;48.170;11.602;2023-05-07T13:36:19;5.10;;;1.70;;
4630;SDS011;2328;48.170;11.602;2023-05-07T13:38:47;1.47;;;1.37;;
4630;SDS011;2328;48.170;11.602;2023-05-07T13:41:16;1.07;;;1.00;;
4630;SDS011;2328;48.170;11.602;2023-05-07T13:43:44;1.13;;;1.10;;
4630;SDS011;2328;48.170;11.602;2023-05-07T13:46:14;1.40;;;1.30;;
4630;SDS011;2328;48.170;11.602;2023-05-07T13:48:44;1.80;;;1.47;;
4630;SDS011;2328;48.170;11.602;2023-05-07T13:51:27;1.67;;;1.57;;
4630;SDS011;2328;48.170;11.602;2023-05-07T13:53:56;1.40;;;1.30;;
4630;SDS011;2328;48.170;11.602;2023-05-07T13:56:25;2.30;;;1.70;;
4630;SDS011;2328;48.170;11.602;2023-05-07T13:58:54;2.10;;;1.03;;
4630;SDS011;2328;48.170;11.602;2023-05-07T14:01:26;1.40;;;1.30;;
4630;SDS011;2328;48.170;11.602;2023-05-07T14:03:57;1.27;;;1.17;;
4630;SDS011;2328;48.170;11.602;2023-05-07T14:06:26;1.27;;;1.17;;
4630;SDS011;2328;48.170;11.602;2023-05-07T14:08:55;1.27;;;1.17;;
4630;SDS011;2328;48.170;11.602;2023-05-07T14:11:24;3.30;;;1.20;;
4630;SDS011;2328;48.170;11.602;2023-05-07T14:13:55;1.40;;;1.30;;
4630;SDS011;2328;48.170;11.602;2023-05-07T14:16:25;2.33;;;1.53;;
4630;SDS011;2328;48.170;11.602;2023-05-07T14:18:58;1.70;;;1.60;;
4630;SDS011;2328;48.170;11.602;2023-05-07T14:21:28;1.60;;;1.50;;
4630;SDS011;2328;48.170;11.602;2023-05-07T14:24:01;2.13;;;2.03;;
4630;SDS011;2328;48.170;11.602;2023-05-07T14:26:30;4.30;;;2.00;;
4630;SDS011;2328;48.170;11.602;2023-05-07T14:29:02;4.43;;;1.50;;
4630;SDS011;2328;48.170;11.602;2023-05-07T14:31:30;2.00;;;1.80;;
4630;SDS011;2328;48.170;11.602;2023-05-07T14:34:05;2.00;;;1.63;;
4630;SDS011;2328;48.170;11.602;2023-05-07T14:36:39;1.87;;;1.50;;
4630;SDS011;2328;48.170;11.602;2023-05-07T14:39:10;1.50;;;1.40;;
4630;SDS011;2328;48.170;11.602;2023-05-07T14:41:42;1.90;;;1.70;;
4630;SDS011;2328;48.170;11.602;2023-05-07T14:44:13;1.57;;;1.40;;
4630;SDS011;2328;48.170;11.602;2023-05-07T14:46:43;1.90;;;1.60;;
4630;SDS011;2328;48.170;11.602;2023-05-07T14:49:14;1.77;;;1.60;;
4630;SDS011;2328;48.170;11.602;2023-05-07T14:51:44;1.83;;;1.73;;
4630;SDS011;2328;48.170;11.602;2023-05-07T14:54:16;2.17;;;1.87;;
4630;SDS011;2328;48.170;11.602;2023-05-07T14:56:47;2.00;;;1.90;;
4630;SDS011;2328;48.170;11.602;2023-05-07T14:59:15;3.07;;;1.70;;
4630;SDS011;2328;48.170;11.602;2023-05-07T15:01:49;2.00;;;1.90;;
4630;SDS011;2328;48.170;11.602;2023-05-07T15:04:19;2.33;;;1.80;;
4630;SDS011;2328;48.170;11.602;2023-05-07T15:06:50;1.70;;;1.60;;
4630;SDS011;2328;48.170;11.602;2023-05-07T15:09:20;1.50;;;1.40;;
4630;SDS011;2328;48.170;11.602;2023-05-07T15:11:55;1.53;;;1.43;;
4630;SDS011;2328;48.170;11.602;2023-05-07T15:14:24;2.23;;;1.33;;
4630;SDS011;2328;48.170;11.602;2023-05-07T15:16:54;1.50;;;1.40;;
4630;SDS011;2328;48.170;11.602;2023-05-07T15:19:29;1.40;;;1.30;;
4630;SDS011;2328;48.170;11.602;2023-05-07T15:21:58;1.43;;;1.33;;
4630;SDS011;2328;48.170;11.602;2023-05-07T15:24:28;1.73;;;1.63;;
4630;SDS011;2328;48.170;11.602;2023-05-07T15:27:05;1.47;;;1.10;;
4630;SDS011;2328;48.170;11.602;2023-05-07T15:29:34;2.00;;;1.57;;
4630;SDS011;2328;48.170;11.602;2023-05-07T15:32:03;1.83;;;1.73;;
4630;SDS011;2328;48.170;11.602;2023-05-07T15:34:35;1.73;;;1.60;;
4630;SDS011;2328;48.170;11.602;2023-05-07T15:37:04;4.00;;;1.83;;
4630;SDS011;2328;48.170;11.602;2023-05-07T15:39:32;1.30;;;1.20;;
4630;SDS011;2328;48.170;11.602;2023-05-07T15:42:01;1.80;;;1.70;;
4630;SDS011;2328;48.170;11.602;2023-05-07T15:44:31;1.43;;;1.33;;
4630;SDS011;2328;48.170;11.602;2023-05-07T15:47:01;1.37;;;1.10;;
4630;SDS011;2328;48.170;11.602;2023-05-07T15:49:30;1.50;;;1.40;;
4630;SDS011;2328;48.170;11.602;2023-05-07T15:52:00;1.30;;;1.20;;